createdAt,value
2022-08-11T00:01:56.690Z,58.10
2022-08-11T00:05:14.342Z,54.62
2022-08-11T00:08:34.988Z,55.68
2022-08-11T00:11:58.665Z,53.50
2022-08-11T00:15:04.400Z,51.31
2022-08-11T00:18:09.742Z,50.44
2022-08-11T00:21:16.207Z,50.46
2022-08-11T00:24:22.166Z,51.08
2022-08-11T00:27:38.787Z,50.88
2022-08-11T00:30:43.587Z,51.11
2022-08-11T00:33:48.885Z,52.11
2022-08-11T00:37:07.436Z,50.70
2022-08-11T00:40:34.560Z,49.73
2022-08-11T00:44:16.487Z,47.36
2022-08-11T00:47:36.515Z,48.56
2022-08-11T00:51:03.279Z,48.78
2022-08-11T00:54:26.946Z,47.33
2022-08-11T00:57:53.031Z,48.67
2022-08-11T01:01:19.275Z,48.20
2022-08-11T01:04:32.749Z,47.39
2022-08-11T01:08:11.002Z,45.51
2022-08-11T01:11:33.637Z,46.41
2022-08-11T01:14:59.513Z,44.68
2022-08-11T01:18:15.963Z,48.59
2022-08-11T01:21:35.615Z,50.36
2022-08-11T01:25:27.987Z,50.46
2022-08-11T01:29:06.367Z,47.07
2022-08-11T01:32:16.996Z,45.84
2022-08-11T01:35:51.859Z,43.75
2022-08-11T01:39:27.563Z,44.77
2022-08-11T01:42:59.577Z,43.70
2022-08-11T01:46:15.171Z,42.99
2022-08-11T01:50:07.541Z,45.11
2022-08-11T01:53:17.910Z,43.66
2022-08-11T01:56:31.853Z,43.10
2022-08-11T01:59:53.700Z,44.51
2022-08-11T02:03:16.127Z,42.35
2022-08-11T02:06:57.304Z,44.16
2022-08-11T02:11:14.640Z,45.00
2022-08-11T02:14:23.279Z,45.58
2022-08-11T02:18:06.072Z,48.20
2022-08-11T02:21:36.289Z,51.37
2022-08-11T02:24:53.432Z,51.64
2022-08-11T02:28:11.881Z,52.44
2022-08-11T02:32:24.895Z,51.63
2022-08-11T02:35:28.931Z,52.24
2022-08-11T02:38:47.215Z,55.45
2022-08-11T02:42:32.098Z,54.74
2022-08-11T02:45:58.365Z,55.28
2022-08-11T02:50:00.018Z,55.87
2022-08-11T02:53:30.514Z,51.59
2022-08-11T02:56:58.566Z,53.42
2022-08-11T03:00:15.294Z,50.61
2022-08-11T03:03:34.175Z,51.95
2022-08-11T03:06:53.978Z,51.68
2022-08-11T03:10:25.380Z,51.19
2022-08-11T03:13:53.574Z,51.04
2022-08-11T03:17:22.618Z,50.96
2022-08-11T03:20:47.359Z,51.59
2022-08-11T03:24:07.663Z,50.25
2022-08-11T03:27:39.019Z,51.59
2022-08-11T03:31:15.482Z,52.02
2022-08-11T03:34:26.683Z,52.83
2022-08-11T03:38:04.255Z,54.08
2022-08-11T03:42:03.200Z,52.73
2022-08-11T03:45:38.776Z,51.79
2022-08-11T03:49:11.571Z,51.50
2022-08-11T03:52:40.856Z,52.80
2022-08-11T03:56:11.063Z,52.66
2022-08-11T03:59:34.414Z,53.34
2022-08-11T04:03:20.898Z,51.34
2022-08-11T04:06:38.187Z,52.64
2022-08-11T04:10:01.132Z,52.76
2022-08-11T04:13:28.993Z,52.91
2022-08-11T04:16:55.100Z,53.04
2022-08-11T04:20:38.606Z,52.91
2022-08-11T04:24:37.595Z,55.09
2022-08-11T04:28:28.583Z,56.77
2022-08-11T04:31:51.643Z,55.22
2022-08-11T04:35:03.074Z,54.76
2022-08-11T04:38:29.884Z,54.63
2022-08-11T04:42:32.964Z,55.39
2022-08-11T04:45:40.393Z,56.57
2022-08-11T04:49:39.815Z,56.59
2022-08-11T04:53:08.515Z,55.47
2022-08-11T04:56:40.634Z,55.35
2022-08-11T05:00:13.338Z,55.84
2022-08-11T05:03:32.655Z,55.48
2022-08-11T05:06:59.204Z,55.91
2022-08-11T05:10:27.226Z,57.73
2022-08-11T05:13:57.103Z,57.64
2022-08-11T05:17:28.904Z,56.93
2022-08-11T05:21:10.072Z,57.13
2022-08-11T05:24:59.325Z,59.04
2022-08-11T05:28:54.107Z,59.01
2022-08-11T05:32:23.054Z,57.95
2022-08-11T05:36:20.331Z,58.70
2022-08-11T05:39:46.723Z,59.20
2022-08-11T05:43:15.272Z,59.19
2022-08-11T05:46:38.613Z,59.11
2022-08-11T05:50:02.277Z,59.50
2022-08-11T05:53:40.254Z,58.40
2022-08-11T05:57:02.863Z,55.95
2022-08-11T06:00:11.335Z,55.97
2022-08-11T06:03:34.322Z,56.06
2022-08-11T06:06:45.544Z,56.12
2022-08-11T06:09:53.440Z,54.99
2022-08-11T06:13:01.930Z,54.05
2022-08-11T06:16:10.007Z,53.05
2022-08-11T06:19:17.241Z,51.76
2022-08-11T06:22:24.526Z,53.04
2022-08-11T06:25:36.570Z,53.51
2022-08-11T06:28:47.790Z,54.40
2022-08-11T06:31:57.070Z,54.71
2022-08-11T06:35:32.244Z,55.32
2022-08-11T06:38:55.318Z,55.80
2022-08-11T06:42:29.031Z,57.70
2022-08-11T06:46:26.919Z,57.00
2022-08-11T06:49:57.954Z,56.39
2022-08-11T06:53:06.306Z,57.57
2022-08-11T06:56:30.150Z,57.39
2022-08-11T06:59:55.391Z,57.11
2022-08-11T07:03:15.252Z,58.43
2022-08-11T07:06:34.515Z,58.82
2022-08-11T07:10:35.906Z,58.19
2022-08-11T07:14:05.403Z,56.70
2022-08-11T07:17:15.944Z,57.18
2022-08-11T07:20:39.072Z,57.39
2022-08-11T07:24:01.837Z,56.87
2022-08-11T07:27:31.232Z,55.07
2022-08-11T07:30:45.828Z,54.48
2022-08-11T07:34:06.500Z,54.21
2022-08-11T07:37:20.757Z,54.02
2022-08-11T07:40:27.849Z,55.11
2022-08-11T07:43:36.472Z,55.04
2022-08-11T07:47:02.555Z,54.48
2022-08-11T07:50:28.871Z,55.13
2022-08-11T07:53:41.795Z,55.99
2022-08-11T07:58:08.747Z,57.16
2022-08-11T08:01:21.256Z,56.79
2022-08-11T08:04:47.427Z,56.78
2022-08-11T08:08:11.477Z,57.28
2022-08-11T08:11:35.826Z,57.97
2022-08-11T08:14:59.216Z,58.25
2022-08-11T08:18:26.472Z,57.62
2022-08-11T08:21:33.071Z,58.51
2022-08-11T08:24:42.759Z,58.89
2022-08-11T08:27:48.656Z,59.31
2022-08-11T08:30:55.820Z,60.08
2022-08-11T08:34:07.424Z,61.46
2022-08-11T08:37:16.134Z,63.51
2022-08-11T08:40:43.337Z,64.73
2022-08-11T08:43:53.101Z,65.89
2022-08-11T08:47:01.557Z,67.13
2022-08-11T08:50:19.055Z,67.35
2022-08-11T08:53:33.391Z,67.70
2022-08-11T08:56:40.982Z,68.06
2022-08-11T08:59:51.773Z,67.80
2022-08-11T09:03:02.705Z,67.81
2022-08-11T09:06:18.175Z,67.67
2022-08-11T09:09:25.920Z,67.33
2022-08-11T09:12:35.724Z,67.97
2022-08-11T09:15:47.443Z,67.88
2022-08-11T09:18:54.072Z,68.36
2022-08-11T09:22:18.521Z,68.23
2022-08-11T09:25:45.280Z,68.36
2022-08-11T09:28:53.270Z,68.72
2022-08-11T09:32:00.503Z,68.77
2022-08-11T09:35:06.181Z,69.48
2022-08-11T09:38:34.992Z,69.85
2022-08-11T09:42:00.834Z,69.83
2022-08-11T09:45:08.794Z,70.23
2022-08-11T09:48:15.532Z,70.59
2022-08-11T09:51:22.629Z,71.03
2022-08-11T09:54:28.050Z,71.37
2022-08-11T09:57:51.511Z,71.81
2022-08-11T10:01:03.181Z,71.39
2022-08-11T10:04:18.407Z,71.82
2022-08-11T10:07:26.341Z,71.98
2022-08-11T10:10:36.274Z,73.30
2022-08-11T10:14:34.533Z,73.59
2022-08-11T10:17:35.910Z,74.16
2022-08-11T10:20:42.498Z,74.16
2022-08-11T10:24:06.248Z,75.77
2022-08-11T10:27:12.475Z,76.68
2022-08-11T10:30:37.060Z,75.21
2022-08-11T10:34:02.662Z,77.52
2022-08-11T10:37:08.137Z,76.71
2022-08-11T10:40:27.043Z,76.89
2022-08-11T10:44:02.785Z,77.85
2022-08-11T10:47:25.810Z,77.67
2022-08-11T10:50:49.502Z,78.46
2022-08-11T10:54:13.286Z,78.06
2022-08-11T10:57:39.544Z,77.84
2022-08-11T11:00:53.122Z,78.10
2022-08-11T11:04:03.478Z,78.20
2022-08-11T11:07:31.485Z,77.75
2022-08-11T11:10:39.281Z,77.59
2022-08-11T11:14:07.632Z,77.74
2022-08-11T11:17:14.840Z,77.83
2022-08-11T11:20:36.939Z,77.28
2022-08-11T11:24:20.414Z,77.80
2022-08-11T11:27:32.907Z,78.85
2022-08-11T11:30:58.016Z,79.65
2022-08-11T11:34:12.528Z,80.03
2022-08-11T11:37:18.252Z,79.80
2022-08-11T11:40:28.705Z,80.67
2022-08-11T11:43:39.322Z,79.19
2022-08-11T11:46:46.668Z,79.29
2022-08-11T11:49:52.221Z,79.47
2022-08-11T11:52:58.339Z,81.09
2022-08-11T11:56:04.189Z,81.06
2022-08-11T11:59:27.747Z,81.71
2022-08-11T12:02:32.563Z,81.54
2022-08-11T12:05:39.189Z,81.25
2022-08-11T12:08:45.273Z,81.29
2022-08-11T12:12:10.089Z,81.58
2022-08-11T12:15:15.240Z,82.38
2022-08-11T12:18:20.627Z,83.49
2022-08-11T12:21:26.556Z,83.76
2022-08-11T12:24:51.464Z,82.95
2022-08-11T12:27:57.301Z,82.67
2022-08-11T12:31:02.101Z,82.80
2022-08-11T12:34:10.857Z,83.68
2022-08-11T12:37:17.752Z,83.46
2022-08-11T12:41:11.753Z,83.56
2022-08-11T12:44:30.527Z,84.72
2022-08-11T12:48:14.000Z,84.36
2022-08-11T12:52:00.760Z,84.83
2022-08-11T12:55:14.140Z,84.56
2022-08-11T12:58:19.514Z,84.79
2022-08-11T13:01:42.716Z,86.17
2022-08-11T13:05:00.118Z,86.00
2022-08-11T13:08:07.814Z,87.08
2022-08-11T13:11:55.891Z,89.22
2022-08-11T13:14:56.747Z,89.51
2022-08-11T13:18:02.303Z,89.08
2022-08-11T13:21:07.314Z,89.58
2022-08-11T13:24:12.043Z,89.87
2022-08-11T13:27:19.710Z,90.44
2022-08-11T13:30:47.304Z,89.59
2022-08-11T13:33:52.811Z,88.59
2022-08-11T13:37:01.200Z,88.41
2022-08-11T13:40:07.066Z,88.75
2022-08-11T13:43:12.347Z,88.14
2022-08-11T13:46:21.269Z,89.07
2022-08-11T13:49:27.228Z,88.82
2022-08-11T13:52:32.094Z,88.47
2022-08-11T13:55:51.135Z,89.00
2022-08-11T13:58:58.915Z,89.69
2022-08-11T14:02:21.671Z,90.56
2022-08-11T14:05:52.946Z,92.20
2022-08-11T14:08:58.712Z,91.21
2022-08-11T14:12:26.956Z,91.38
2022-08-11T14:15:36.606Z,91.55
2022-08-11T14:18:46.447Z,91.27
2022-08-11T14:22:11.192Z,91.63
2022-08-11T14:25:17.689Z,91.60
2022-08-11T14:28:33.648Z,90.78
2022-08-11T14:31:48.245Z,90.17
2022-08-11T14:34:53.518Z,89.62
2022-08-11T14:37:58.557Z,90.59
2022-08-11T14:41:23.268Z,89.80
2022-08-11T14:44:47.503Z,89.54
2022-08-11T14:47:55.767Z,89.13
2022-08-11T14:51:00.928Z,89.42
2022-08-11T14:54:24.247Z,89.35
2022-08-11T14:57:56.195Z,89.29
2022-08-11T15:00:58.613Z,89.30
2022-08-11T15:04:35.193Z,90.07
2022-08-11T15:07:31.285Z,92.73
2022-08-11T15:10:37.346Z,93.34
2022-08-11T15:13:41.939Z,93.56
2022-08-11T15:17:06.055Z,93.48
2022-08-11T15:20:33.525Z,94.71
2022-08-11T15:23:58.296Z,95.44
2022-08-11T15:27:24.101Z,96.11
2022-08-11T15:30:47.749Z,95.79
2022-08-11T15:34:16.447Z,93.51
2022-08-11T15:37:30.209Z,93.28
2022-08-11T15:40:59.042Z,93.23
2022-08-11T15:44:44.681Z,93.69
2022-08-11T15:48:05.221Z,98.04
2022-08-11T15:51:35.834Z,97.30
2022-08-11T15:54:43.439Z,95.36
2022-08-11T15:58:09.973Z,94.86
2022-08-11T16:01:38.761Z,94.75
2022-08-11T16:04:45.814Z,94.38
2022-08-11T16:07:54.834Z,93.90
2022-08-11T16:11:01.867Z,93.12
2022-08-11T16:14:30.902Z,93.17
2022-08-11T16:17:45.422Z,92.62
2022-08-11T16:20:56.778Z,92.60
2022-08-11T16:24:04.544Z,92.68
2022-08-11T16:27:14.242Z,93.64
2022-08-11T16:30:20.056Z,94.40
2022-08-11T16:33:50.800Z,95.81
2022-08-11T16:37:10.095Z,95.61
2022-08-11T16:40:16.011Z,95.31
2022-08-11T16:43:45.342Z,94.50
2022-08-11T16:47:00.851Z,95.42
2022-08-11T16:50:06.815Z,96.39
2022-08-11T16:53:11.248Z,96.06
2022-08-11T16:56:38.191Z,95.68
2022-08-11T16:59:42.952Z,95.94
2022-08-11T17:03:11.438Z,95.30
2022-08-11T17:06:35.267Z,94.66
2022-08-11T17:09:58.896Z,94.45
2022-08-11T17:13:11.146Z,94.49
2022-08-11T17:16:25.240Z,93.51
2022-08-11T17:20:40.018Z,93.64
2022-08-11T17:23:19.997Z,94.65
2022-08-11T17:26:57.193Z,95.12
2022-08-11T17:30:06.520Z,95.04
2022-08-11T17:33:35.813Z,94.95
2022-08-11T17:36:45.572Z,95.25
2022-08-11T17:39:51.950Z,97.32
2022-08-11T17:43:17.330Z,97.60
2022-08-11T17:46:44.712Z,96.97
2022-08-11T17:49:49.564Z,96.01
2022-08-11T17:53:13.576Z,95.77
2022-08-11T17:56:38.443Z,96.30
2022-08-11T17:59:54.564Z,95.84
2022-08-11T18:03:21.292Z,95.03
2022-08-11T18:06:33.795Z,94.63
2022-08-11T18:09:57.574Z,95.39
2022-08-11T18:13:25.226Z,95.88
2022-08-11T18:16:49.278Z,96.20
2022-08-11T18:20:12.273Z,95.37
2022-08-11T18:23:45.655Z,94.74
2022-08-11T18:27:11.987Z,94.48
2022-08-11T18:30:35.934Z,94.93
2022-08-11T18:34:07.788Z,95.33
2022-08-11T18:37:35.495Z,94.47
2022-08-11T18:40:58.852Z,94.12
2022-08-11T18:44:25.816Z,93.46
2022-08-11T18:47:55.416Z,93.19
2022-08-11T18:51:30.935Z,94.02
2022-08-11T18:55:06.932Z,93.88
2022-08-11T18:58:37.227Z,94.31
2022-08-11T19:02:01.342Z,93.54
2022-08-11T19:06:31.944Z,93.68
2022-08-11T19:09:21.121Z,94.21
2022-08-11T19:12:45.984Z,94.28
2022-08-11T19:16:09.997Z,94.09
2022-08-11T19:19:35.213Z,94.42
2022-08-11T19:22:58.229Z,94.82
2022-08-11T19:26:25.833Z,94.66
2022-08-11T19:30:08.069Z,94.78
2022-08-11T19:34:00.316Z,94.93
2022-08-11T19:37:20.812Z,94.57
2022-08-11T19:40:48.366Z,95.43
2022-08-11T19:44:16.437Z,95.90
2022-08-11T19:47:41.298Z,95.36
2022-08-11T19:51:05.502Z,95.82
2022-08-11T19:54:29.732Z,95.64
2022-08-11T19:57:55.743Z,96.33
2022-08-11T20:01:18.536Z,97.29
2022-08-11T20:04:41.812Z,95.76
2022-08-11T20:08:06.478Z,95.73
2022-08-11T20:11:32.801Z,95.91
2022-08-11T20:14:59.405Z,96.52
2022-08-11T20:18:25.360Z,96.46
2022-08-11T20:21:48.424Z,96.73
2022-08-11T20:25:13.134Z,96.25
2022-08-11T20:28:40.094Z,96.57
2022-08-11T20:32:04.333Z,96.18
2022-08-11T20:35:33.208Z,95.85
2022-08-11T20:38:57.735Z,95.79
2022-08-11T20:42:25.211Z,95.65
2022-08-11T20:45:52.105Z,96.00
2022-08-11T20:49:24.317Z,95.96
2022-08-11T20:52:50.062Z,96.74
2022-08-11T20:56:14.926Z,96.66
2022-08-11T20:59:49.516Z,97.12
2022-08-11T21:03:36.381Z,96.62
2022-08-11T21:07:09.505Z,96.49
2022-08-11T21:10:33.386Z,95.89
2022-08-11T21:14:00.221Z,96.49
2022-08-11T21:18:00.228Z,95.88
2022-08-11T21:21:10.074Z,96.44
2022-08-11T21:24:42.926Z,96.19
2022-08-11T21:28:12.107Z,95.95
2022-08-11T21:31:36.414Z,96.30
2022-08-11T21:35:05.034Z,96.56
2022-08-11T21:38:29.135Z,96.69
2022-08-11T21:41:53.371Z,98.73
2022-08-11T21:45:18.687Z,99.98
2022-08-11T21:48:45.618Z,99.38
2022-08-11T21:52:08.943Z,97.32
2022-08-11T21:55:33.921Z,96.54
2022-08-11T21:58:58.853Z,95.92
2022-08-11T22:02:30.281Z,96.53
2022-08-11T22:05:54.741Z,96.13
2022-08-11T22:09:18.012Z,96.45
2022-08-11T22:12:45.034Z,95.56
2022-08-11T22:16:08.083Z,96.44
2022-08-11T22:19:33.189Z,96.75
2022-08-11T22:22:56.628Z,98.00
2022-08-11T22:26:20.751Z,98.01
2022-08-11T22:29:50.619Z,98.99
2022-08-11T22:33:18.671Z,97.45
2022-08-11T22:36:49.022Z,94.89
2022-08-11T22:40:12.555Z,94.92
2022-08-11T22:43:35.664Z,95.22
2022-08-11T22:46:59.519Z,95.03
2022-08-11T22:50:24.403Z,94.04
2022-08-11T22:53:57.632Z,93.38
2022-08-11T22:57:22.018Z,93.88
2022-08-11T23:00:45.220Z,93.05
2022-08-11T23:04:08.997Z,92.57
2022-08-11T23:07:49.342Z,92.20
2022-08-11T23:11:15.922Z,93.55
2022-08-11T23:14:41.419Z,95.03
2022-08-11T23:18:05.663Z,95.31
2022-08-11T23:21:30.936Z,93.42
2022-08-11T23:24:54.468Z,92.23
2022-08-11T23:28:19.034Z,91.47
2022-08-11T23:31:50.761Z,90.11
2022-08-11T23:35:38.074Z,89.32
2022-08-11T23:39:00.126Z,90.97
2022-08-11T23:42:24.199Z,91.37
2022-08-11T23:45:47.100Z,89.20
2022-08-11T23:49:15.536Z,87.72
2022-08-11T23:52:40.226Z,89.88
2022-08-11T23:56:04.409Z,89.78
2022-08-11T23:59:28.160Z,89.09
